sensor_id;sensor_type;location;lat;lon;timestamp;temperature;humidity
4964;DHT22;2497;47.410;9.740;2022-11-20T00:02:14;5.80;99.90
4964;DHT22;2497;47.410;9.740;2022-11-20T00:04:41;5.90;99.90
4964;DHT22;2497;47.410;9.740;2022-11-20T00:07:09;5.80;99.90
4964;DHT22;2497;47.410;9.740;2022-11-20T00:09:36;5.90;99.90
4964;DHT22;2497;47.410;9.740;2022-11-20T00:12:04;5.80;99.90
4964;DHT22;2497;47.410;9.740;2022-11-20T00:14:33;5.80;99.90
4964;DHT22;2497;47.410;9.740;2022-11-20T00:17:01;5.80;99.90
4964;DHT22;2497;47.410;9.740;2022-11-20T00:19:28;5.90;99.90
4964;DHT22;2497;47.410;9.740;2022-11-20T00:21:56;5.90;99.90
4964;DHT22;2497;47.410;9.740;2022-11-20T00:24:23;5.90;99.90
4964;DHT22;2497;47.410;9.740;2022-11-20T00:26:51;5.90;99.90
4964;DHT22;2497;47.410;9.740;2022-11-20T00:29:19;5.90;99.90
4964;DHT22;2497;47.410;9.740;2022-11-20T00:31:48;6.00;99.90
4964;DHT22;2497;47.410;9.740;2022-11-20T00:34:16;6.00;99.90
4964;DHT22;2497;47.410;9.740;2022-11-20T00:36:44;6.00;99.90
4964;DHT22;2497;47.410;9.740;2022-11-20T00:39:11;5.90;99.90
4964;DHT22;2497;47.410;9.740;2022-11-20T00:41:39;5.90;99.90
4964;DHT22;2497;47.410;9.740;2022-11-20T00:44:07;5.90;99.90
4964;DHT22;2497;47.410;9.740;2022-11-20T00:46:34;6.00;99.90
4964;DHT22;2497;47.410;9.740;2022-11-20T00:49:07;6.00;99.90
4964;DHT22;2497;47.410;9.740;2022-11-20T00:51:34;6.00;99.90
4964;DHT22;2497;47.410;9.740;2022-11-20T00:54:02;6.00;99.90
4964;DHT22;2497;47.410;9.740;2022-11-20T00:56:30;6.00;99.90
4964;DHT22;2497;47.410;9.740;2022-11-20T00:58:59;6.00;99.90
4964;DHT22;2497;47.410;9.740;2022-11-20T01:01:28;6.00;99.90
4964;DHT22;2497;47.410;9.740;2022-11-20T01:03:57;6.00;99.90
4964;DHT22;2497;47.410;9.740;2022-11-20T01:06:27;6.00;99.90
4964;DHT22;2497;47.410;9.740;2022-11-20T01:08:57;6.10;99.90
4964;DHT22;2497;47.410;9.740;2022-11-20T01:11:27;6.00;99.90
4964;DHT22;2497;47.410;9.740;2022-11-20T01:13:56;6.00;99.90
4964;DHT22;2497;47.410;9.740;2022-11-20T01:16:25;6.00;99.90
4964;DHT22;2497;47.410;9.740;2022-11-20T01:18:56;5.90;99.90
4964;DHT22;2497;47.410;9.740;2022-11-20T01:21:29;6.00;99.90
4964;DHT22;2497;47.410;9.740;2022-11-20T01:23:57;6.00;99.90
4964;DHT22;2497;47.410;9.740;2022-11-20T01:26:26;6.00;99.90
4964;DHT22;2497;47.410;9.740;2022-11-20T01:28:56;6.00;99.90
4964;DHT22;2497;47.410;9.740;2022-11-20T01:31:25;6.10;99.90
4964;DHT22;2497;47.410;9.740;2022-11-20T01:33:56;6.10;99.90
4964;DHT22;2497;47.410;9.740;2022-11-20T01:36:27;6.10;99.90
4964;DHT22;2497;47.410;9.740;2022-11-20T01:38:57;6.10;99.90
4964;DHT22;2497;47.410;9.740;2022-11-20T01:41:26;6.10;99.90
4964;DHT22;2497;47.410;9.740;2022-11-20T01:44:17;6.10;99.90
4964;DHT22;2497;47.410;9.740;2022-11-20T01:46:52;6.10;99.90
4964;DHT22;2497;47.410;9.740;2022-11-20T01:49:24;6.10;99.90
4964;DHT22;2497;47.410;9.740;2022-11-20T01:51:58;6.10;99.90
4964;DHT22;2497;47.410;9.740;2022-11-20T01:54:32;6.10;99.90
4964;DHT22;2497;47.410;9.740;2022-11-20T01:57:03;6.10;99.90
4964;DHT22;2497;47.410;9.740;2022-11-20T01:59:31;6.10;99.90
4964;DHT22;2497;47.410;9.740;2022-11-20T02:02:00;6.10;99.90
4964;DHT22;2497;47.410;9.740;2022-11-20T02:04:28;6.10;99.90
4964;DHT22;2497;47.410;9.740;2022-11-20T02:07:00;6.00;99.90
4964;DHT22;2497;47.410;9.740;2022-11-20T02:09:28;6.00;99.90
4964;DHT22;2497;47.410;9.740;2022-11-20T02:11:56;6.00;99.90
4964;DHT22;2497;47.410;9.740;2022-11-20T02:14:25;6.00;99.90
4964;DHT22;2497;47.410;9.740;2022-11-20T02:16:52;6.00;99.90
4964;DHT22;2497;47.410;9.740;2022-11-20T02:19:26;6.00;99.90
4964;DHT22;2497;47.410;9.740;2022-11-20T02:22:11;6.00;99.90
4964;DHT22;2497;47.410;9.740;2022-11-20T02:24:44;6.00;99.90
4964;DHT22;2497;47.410;9.740;2022-11-20T02:27:14;6.00;99.90
4964;DHT22;2497;47.410;9.740;2022-11-20T02:29:46;5.90;99.90
4964;DHT22;2497;47.410;9.740;2022-11-20T02:32:18;5.90;99.90
4964;DHT22;2497;47.410;9.740;2022-11-20T02:34:46;5.90;99.90
4964;DHT22;2497;47.410;9.740;2022-11-20T02:37:14;6.00;99.90
4964;DHT22;2497;47.410;9.740;2022-11-20T02:39:45;6.00;99.90
4964;DHT22;2497;47.410;9.740;2022-11-20T02:42:13;6.00;99.90
4964;DHT22;2497;47.410;9.740;2022-11-20T02:44:41;6.00;99.90
4964;DHT22;2497;47.410;9.740;2022-11-20T02:47:09;6.10;99.90
4964;DHT22;2497;47.410;9.740;2022-11-20T02:49:37;6.10;99.90
4964;DHT22;2497;47.410;9.740;2022-11-20T02:52:05;6.00;99.90
4964;DHT22;2497;47.410;9.740;2022-11-20T02:54:32;6.00;99.90
4964;DHT22;2497;47.410;9.740;2022-11-20T02:57:02;6.10;99.90
4964;DHT22;2497;47.410;9.740;2022-11-20T02:59:29;6.10;99.90
4964;DHT22;2497;47.410;9.740;2022-11-20T03:01:57;6.10;99.90
4964;DHT22;2497;47.410;9.740;2022-11-20T03:04:24;6.10;99.90
4964;DHT22;2497;47.410;9.740;2022-11-20T03:06:51;6.10;99.90
4964;DHT22;2497;47.410;9.740;2022-11-20T03:09:19;6.10;99.90
4964;DHT22;2497;47.410;9.740;2022-11-20T03:11:47;6.00;99.90
4964;DHT22;2497;47.410;9.740;2022-11-20T03:14:18;6.00;99.90
4964;DHT22;2497;47.410;9.740;2022-11-20T03:16:46;6.00;99.90
4964;DHT22;2497;47.410;9.740;2022-11-20T03:19:14;6.00;99.90
4964;DHT22;2497;47.410;9.740;2022-11-20T03:21:41;6.00;99.90
4964;DHT22;2497;47.410;9.740;2022-11-20T03:24:09;6.00;99.90
4964;DHT22;2497;47.410;9.740;2022-11-20T03:26:37;6.00;99.90
4964;DHT22;2497;47.410;9.740;2022-11-20T03:29:06;6.00;99.90
4964;DHT22;2497;47.410;9.740;2022-11-20T03:31:36;6.00;99.90
4964;DHT22;2497;47.410;9.740;2022-11-20T03:34:06;5.90;99.90
4964;DHT22;2497;47.410;9.740;2022-11-20T03:36:34;5.90;99.90
4964;DHT22;2497;47.410;9.740;2022-11-20T03:39:02;6.00;99.90
4964;DHT22;2497;47.410;9.740;2022-11-20T03:41:35;6.00;99.90
4964;DHT22;2497;47.410;9.740;2022-11-20T03:44:04;6.00;99.90
4964;DHT22;2497;47.410;9.740;2022-11-20T03:46:33;6.00;99.90
4964;DHT22;2497;47.410;9.740;2022-11-20T03:49:01;5.90;99.90
4964;DHT22;2497;47.410;9.740;2022-11-20T03:51:30;5.90;99.90
4964;DHT22;2497;47.410;9.740;2022-11-20T03:53:59;5.90;99.90
4964;DHT22;2497;47.410;9.740;2022-11-20T03:56:28;5.90;99.90
4964;DHT22;2497;47.410;9.740;2022-11-20T03:58:56;5.90;99.90
4964;DHT22;2497;47.410;9.740;2022-11-20T04:01:25;5.90;99.90
4964;DHT22;2497;47.410;9.740;2022-11-20T04:03:55;6.00;99.90
4964;DHT22;2497;47.410;9.740;2022-11-20T04:06:25;5.90;99.90
4964;DHT22;2497;47.410;9.740;2022-11-20T04:08:54;6.00;99.90
4964;DHT22;2497;47.410;9.740;2022-11-20T04:11:23;5.90;99.90
4964;DHT22;2497;47.410;9.740;2022-11-20T04:13:53;6.00;99.90
4964;DHT22;2497;47.410;9.740;2022-11-20T04:16:21;6.00;99.90
4964;DHT22;2497;47.410;9.740;2022-11-20T04:18:53;6.10;99.90
4964;DHT22;2497;47.410;9.740;2022-11-20T04:21:23;6.10;99.90
4964;DHT22;2497;47.410;9.740;2022-11-20T04:23:51;6.10;99.90
4964;DHT22;2497;47.410;9.740;2022-11-20T04:26:20;6.00;99.90
4964;DHT22;2497;47.410;9.740;2022-11-20T04:28:48;6.00;99.90
4964;DHT22;2497;47.410;9.740;2022-11-20T04:31:17;6.00;99.90
4964;DHT22;2497;47.410;9.740;2022-11-20T04:33:46;6.00;99.90
4964;DHT22;2497;47.410;9.740;2022-11-20T04:36:16;6.00;99.90
4964;DHT22;2497;47.410;9.740;2022-11-20T04:38:44;6.00;99.90
4964;DHT22;2497;47.410;9.740;2022-11-20T04:41:16;6.00;99.90
4964;DHT22;2497;47.410;9.740;2022-11-20T04:43:46;6.00;99.90
4964;DHT22;2497;47.410;9.740;2022-11-20T04:46:14;6.00;99.90
4964;DHT22;2497;47.410;9.740;2022-11-20T04:48:42;6.00;99.90
4964;DHT22;2497;47.410;9.740;2022-11-20T04:51:10;5.90;99.90
4964;DHT22;2497;47.410;9.740;2022-11-20T04:53:39;6.00;99.90
4964;DHT22;2497;47.410;9.740;2022-11-20T04:56:08;6.00;99.90
4964;DHT22;2497;47.410;9.740;2022-11-20T04:58:37;5.90;99.90
4964;DHT22;2497;47.410;9.740;2022-11-20T05:01:06;5.90;99.90
4964;DHT22;2497;47.410;9.740;2022-11-20T05:03:34;5.90;99.90
4964;DHT22;2497;47.410;9.740;2022-11-20T05:06:02;5.90;99.90
4964;DHT22;2497;47.410;9.740;2022-11-20T05:08:30;5.90;99.90
4964;DHT22;2497;47.410;9.740;2022-11-20T05:11:03;6.00;99.90
4964;DHT22;2497;47.410;9.740;2022-11-20T05:13:32;5.90;99.90
4964;DHT22;2497;47.410;9.740;2022-11-20T05:16:04;5.80;99.90
4964;DHT22;2497;47.410;9.740;2022-11-20T05:18:33;5.80;99.90
4964;DHT22;2497;47.410;9.740;2022-11-20T05:21:01;5.90;99.90
4964;DHT22;2497;47.410;9.740;2022-11-20T05:23:30;5.80;99.90
4964;DHT22;2497;47.410;9.740;2022-11-20T05:25:58;5.90;99.90
4964;DHT22;2497;47.410;9.740;2022-11-20T05:28:28;5.90;99.90
4964;DHT22;2497;47.410;9.740;2022-11-20T05:30:56;5.90;99.90
4964;DHT22;2497;47.410;9.740;2022-11-20T05:33:24;5.90;99.90
4964;DHT22;2497;47.410;9.740;2022-11-20T05:35:51;5.80;99.90
4964;DHT22;2497;47.410;9.740;2022-11-20T05:38:19;5.80;99.90
4964;DHT22;2497;47.410;9.740;2022-11-20T05:40:46;5.80;99.90
4964;DHT22;2497;47.410;9.740;2022-11-20T05:43:14;5.90;99.90
4964;DHT22;2497;47.410;9.740;2022-11-20T05:45:52;5.90;99.90
4964;DHT22;2497;47.410;9.740;2022-11-20T05:48:19;5.80;99.90
4964;DHT22;2497;47.410;9.740;2022-11-20T05:50:47;5.80;99.90
4964;DHT22;2497;47.410;9.740;2022-11-20T05:53:15;5.80;99.90
4964;DHT22;2497;47.410;9.740;2022-11-20T05:55:42;5.80;99.90
4964;DHT22;2497;47.410;9.740;2022-11-20T05:58:10;5.90;99.90
4964;DHT22;2497;47.410;9.740;2022-11-20T06:00:38;5.90;99.90
4964;DHT22;2497;47.410;9.740;2022-11-20T06:03:07;5.80;99.90
4964;DHT22;2497;47.410;9.740;2022-11-20T06:05:35;5.70;99.90
4964;DHT22;2497;47.410;9.740;2022-11-20T06:08:03;5.70;99.90
4964;DHT22;2497;47.410;9.740;2022-11-20T06:10:30;5.70;99.90
4964;DHT22;2497;47.410;9.740;2022-11-20T06:12:57;5.60;99.90
4964;DHT22;2497;47.410;9.740;2022-11-20T06:15:25;5.60;99.90
4964;DHT22;2497;47.410;9.740;2022-11-20T06:17:53;5.60;99.90
4964;DHT22;2497;47.410;9.740;2022-11-20T06:20:21;5.60;99.90
4964;DHT22;2497;47.410;9.740;2022-11-20T06:22:49;5.60;99.90
4964;DHT22;2497;47.410;9.740;2022-11-20T06:25:18;5.50;99.90
4964;DHT22;2497;47.410;9.740;2022-11-20T06:27:45;5.50;99.90
4964;DHT22;2497;47.410;9.740;2022-11-20T06:30:14;5.50;99.90
4964;DHT22;2497;47.410;9.740;2022-11-20T06:32:41;5.50;99.90
4964;DHT22;2497;47.410;9.740;2022-11-20T06:35:09;5.50;99.90
4964;DHT22;2497;47.410;9.740;2022-11-20T06:37:39;5.50;99.90
4964;DHT22;2497;47.410;9.740;2022-11-20T06:40:08;5.40;99.90
4964;DHT22;2497;47.410;9.740;2022-11-20T06:42:35;5.50;99.90
4964;DHT22;2497;47.410;9.740;2022-11-20T06:45:03;5.50;99.90
4964;DHT22;2497;47.410;9.740;2022-11-20T06:47:31;5.50;99.90
4964;DHT22;2497;47.410;9.740;2022-11-20T06:49:59;5.50;99.90
4964;DHT22;2497;47.410;9.740;2022-11-20T06:52:26;5.60;99.90
4964;DHT22;2497;47.410;9.740;2022-11-20T06:54:55;5.60;99.90
4964;DHT22;2497;47.410;9.740;2022-11-20T06:57:23;5.60;99.90
4964;DHT22;2497;47.410;9.740;2022-11-20T06:59:51;5.60;99.90
4964;DHT22;2497;47.410;9.740;2022-11-20T07:02:19;5.60;99.90
4964;DHT22;2497;47.410;9.740;2022-11-20T07:04:46;5.60;99.90
4964;DHT22;2497;47.410;9.740;2022-11-20T07:07:14;5.60;99.90
4964;DHT22;2497;47.410;9.740;2022-11-20T07:09:42;5.60;99.90
4964;DHT22;2497;47.410;9.740;2022-11-20T07:12:11;5.60;99.90
4964;DHT22;2497;47.410;9.740;2022-11-20T07:14:38;5.70;99.90
4964;DHT22;2497;47.410;9.740;2022-11-20T07:17:07;5.70;99.90
4964;DHT22;2497;47.410;9.740;2022-11-20T07:19:34;5.70;99.90
4964;DHT22;2497;47.410;9.740;2022-11-20T07:22:03;5.70;99.90
4964;DHT22;2497;47.410;9.740;2022-11-20T07:24:30;5.70;99.90
4964;DHT22;2497;47.410;9.740;2022-11-20T07:26:58;5.70;99.90
4964;DHT22;2497;47.410;9.740;2022-11-20T07:29:27;5.70;99.90
4964;DHT22;2497;47.410;9.740;2022-11-20T07:31:54;5.90;99.90
4964;DHT22;2497;47.410;9.740;2022-11-20T07:34:22;5.80;99.90
4964;DHT22;2497;47.410;9.740;2022-11-20T07:36:50;5.90;99.90
4964;DHT22;2497;47.410;9.740;2022-11-20T07:39:17;5.90;99.90
4964;DHT22;2497;47.410;9.740;2022-11-20T07:41:45;5.80;99.90
4964;DHT22;2497;47.410;9.740;2022-11-20T07:44:12;5.80;99.90
4964;DHT22;2497;47.410;9.740;2022-11-20T07:46:41;5.80;99.90
4964;DHT22;2497;47.410;9.740;2022-11-20T07:49:09;5.90;99.90
4964;DHT22;2497;47.410;9.740;2022-11-20T07:51:36;5.90;99.90
4964;DHT22;2497;47.410;9.740;2022-11-20T07:54:04;5.90;99.90
4964;DHT22;2497;47.410;9.740;2022-11-20T07:56:32;6.00;99.90
4964;DHT22;2497;47.410;9.740;2022-11-20T07:59:00;6.00;99.90
4964;DHT22;2497;47.410;9.740;2022-11-20T08:01:27;6.10;99.90
4964;DHT22;2497;47.410;9.740;2022-11-20T08:03:56;6.20;99.90
4964;DHT22;2497;47.410;9.740;2022-11-20T08:06:24;6.20;99.90
4964;DHT22;2497;47.410;9.740;2022-11-20T08:08:52;6.30;99.90
4964;DHT22;2497;47.410;9.740;2022-11-20T08:11:19;6.30;99.90
4964;DHT22;2497;47.410;9.740;2022-11-20T08:14:04;6.40;99.90
4964;DHT22;2497;47.410;9.740;2022-11-20T08:16:43;6.40;99.90
4964;DHT22;2497;47.410;9.740;2022-11-20T08:19:14;6.40;99.90
4964;DHT22;2497;47.410;9.740;2022-11-20T08:21:42;6.50;99.90
4964;DHT22;2497;47.410;9.740;2022-11-20T08:24:10;6.50;99.90
4964;DHT22;2497;47.410;9.740;2022-11-20T08:26:38;6.60;99.90
4964;DHT22;2497;47.410;9.740;2022-11-20T08:29:07;6.60;99.90
4964;DHT22;2497;47.410;9.740;2022-11-20T08:31:34;6.70;99.90
4964;DHT22;2497;47.410;9.740;2022-11-20T08:34:02;6.80;99.90
4964;DHT22;2497;47.410;9.740;2022-11-20T08:36:35;6.90;99.90
4964;DHT22;2497;47.410;9.740;2022-11-20T08:39:04;7.00;99.90
4964;DHT22;2497;47.410;9.740;2022-11-20T08:41:31;7.00;99.90
4964;DHT22;2497;47.410;9.740;2022-11-20T08:44:00;7.00;99.90
4964;DHT22;2497;47.410;9.740;2022-11-20T08:46:32;6.90;99.90
4964;DHT22;2497;47.410;9.740;2022-11-20T08:49:01;6.70;99.90
4964;DHT22;2497;47.410;9.740;2022-11-20T08:51:28;6.70;99.90
4964;DHT22;2497;47.410;9.740;2022-11-20T08:53:57;6.80;99.90
4964;DHT22;2497;47.410;9.740;2022-11-20T08:56:25;6.80;99.90
4964;DHT22;2497;47.410;9.740;2022-11-20T08:58:52;6.80;99.90
4964;DHT22;2497;47.410;9.740;2022-11-20T09:01:21;6.90;99.90
4964;DHT22;2497;47.410;9.740;2022-11-20T09:03:49;6.90;99.90
4964;DHT22;2497;47.410;9.740;2022-11-20T09:06:16;7.00;99.90
4964;DHT22;2497;47.410;9.740;2022-11-20T09:08:43;6.90;99.90
4964;DHT22;2497;47.410;9.740;2022-11-20T09:11:12;7.00;99.90
4964;DHT22;2497;47.410;9.740;2022-11-20T09:13:40;7.20;99.90
4964;DHT22;2497;47.410;9.740;2022-11-20T09:16:09;7.30;99.90
4964;DHT22;2497;47.410;9.740;2022-11-20T09:18:37;7.40;99.90
4964;DHT22;2497;47.410;9.740;2022-11-20T09:21:06;7.40;99.90
4964;DHT22;2497;47.410;9.740;2022-11-20T09:23:36;7.40;99.90
4964;DHT22;2497;47.410;9.740;2022-11-20T09:26:05;7.50;99.90
4964;DHT22;2497;47.410;9.740;2022-11-20T09:28:34;7.60;99.90
4964;DHT22;2497;47.410;9.740;2022-11-20T09:31:04;7.80;99.90
4964;DHT22;2497;47.410;9.740;2022-11-20T09:33:32;8.00;99.90
4964;DHT22;2497;47.410;9.740;2022-11-20T09:35:59;8.30;99.90
4964;DHT22;2497;47.410;9.740;2022-11-20T09:38:27;8.40;99.90
4964;DHT22;2497;47.410;9.740;2022-11-20T09:40:58;8.40;99.90
4964;DHT22;2497;47.410;9.740;2022-11-20T09:43:40;8.30;99.90
4964;DHT22;2497;47.410;9.740;2022-11-20T09:46:17;8.20;99.90
4964;DHT22;2497;47.410;9.740;2022-11-20T09:49:00;8.40;99.90
4964;DHT22;2497;47.410;9.740;2022-11-20T09:51:39;8.40;99.90
4964;DHT22;2497;47.410;9.740;2022-11-20T09:54:16;8.30;99.90
4964;DHT22;2497;47.410;9.740;2022-11-20T09:56:46;8.10;99.90
4964;DHT22;2497;47.410;9.740;2022-11-20T09:59:31;8.20;99.90
4964;DHT22;2497;47.410;9.740;2022-11-20T10:02:00;8.10;99.90
4964;DHT22;2497;47.410;9.740;2022-11-20T10:04:31;8.20;99.90
4964;DHT22;2497;47.410;9.740;2022-11-20T10:07:04;8.20;99.90
4964;DHT22;2497;47.410;9.740;2022-11-20T10:09:35;8.40;99.90
4964;DHT22;2497;47.410;9.740;2022-11-20T10:12:12;8.50;99.90
4964;DHT22;2497;47.410;9.740;2022-11-20T10:14:54;8.40;99.90
4964;DHT22;2497;47.410;9.740;2022-11-20T10:17:33;8.60;99.90
4964;DHT22;2497;47.410;9.740;2022-11-20T10:20:16;8.70;99.90
4964;DHT22;2497;47.410;9.740;2022-11-20T10:22:57;8.50;99.90
4964;DHT22;2497;47.410;9.740;2022-11-20T10:25:37;8.50;99.90
4964;DHT22;2497;47.410;9.740;2022-11-20T10:28:26;8.50;99.90
4964;DHT22;2497;47.410;9.740;2022-11-20T10:31:00;8.60;99.90
4964;DHT22;2497;47.410;9.740;2022-11-20T10:33:32;8.60;99.90
4964;DHT22;2497;47.410;9.740;2022-11-20T10:36:08;8.50;99.90
4964;DHT22;2497;47.410;9.740;2022-11-20T10:38:43;8.60;99.90
4964;DHT22;2497;47.410;9.740;2022-11-20T10:41:17;8.50;99.90
4964;DHT22;2497;47.410;9.740;2022-11-20T10:44:00;8.50;99.90
4964;DHT22;2497;47.410;9.740;2022-11-20T10:46:37;8.70;99.90
4964;DHT22;2497;47.410;9.740;2022-11-20T10:49:11;8.70;99.90
4964;DHT22;2497;47.410;9.740;2022-11-20T10:51:47;8.70;99.90
4964;DHT22;2497;47.410;9.740;2022-11-20T10:54:22;8.80;99.90
4964;DHT22;2497;47.410;9.740;2022-11-20T10:56:53;8.80;99.90
4964;DHT22;2497;47.410;9.740;2022-11-20T10:59:38;8.80;99.90
4964;DHT22;2497;47.410;9.740;2022-11-20T11:02:18;8.90;99.90
4964;DHT22;2497;47.410;9.740;2022-11-20T11:04:48;8.80;99.90
4964;DHT22;2497;47.410;9.740;2022-11-20T11:07:21;8.80;99.90
4964;DHT22;2497;47.410;9.740;2022-11-20T11:09:51;8.80;99.90
4964;DHT22;2497;47.410;9.740;2022-11-20T11:12:19;8.70;99.90
4964;DHT22;2497;47.410;9.740;2022-11-20T11:14:50;8.70;99.90
4964;DHT22;2497;47.410;9.740;2022-11-20T11:17:25;8.80;99.90
4964;DHT22;2497;47.410;9.740;2022-11-20T11:20:01;8.90;99.90
4964;DHT22;2497;47.410;9.740;2022-11-20T11:22:31;9.20;99.90
4964;DHT22;2497;47.410;9.740;2022-11-20T11:25:00;9.30;99.90
4964;DHT22;2497;47.410;9.740;2022-11-20T11:27:28;9.30;99.90
4964;DHT22;2497;47.410;9.740;2022-11-20T11:30:13;9.40;99.90
4964;DHT22;2497;47.410;9.740;2022-11-20T11:32:44;9.40;99.90
4964;DHT22;2497;47.410;9.740;2022-11-20T11:35:21;9.40;99.90
4964;DHT22;2497;47.410;9.740;2022-11-20T11:37:50;9.50;99.90
4964;DHT22;2497;47.410;9.740;2022-11-20T11:40:21;9.40;99.90
4964;DHT22;2497;47.410;9.740;2022-11-20T11:42:52;9.40;99.90
4964;DHT22;2497;47.410;9.740;2022-11-20T11:45:21;9.40;99.90
4964;DHT22;2497;47.410;9.740;2022-11-20T11:47:52;9.50;99.90
4964;DHT22;2497;47.410;9.740;2022-11-20T11:50:22;9.60;99.90
4964;DHT22;2497;47.410;9.740;2022-11-20T11:52:59;9.50;99.90
4964;DHT22;2497;47.410;9.740;2022-11-20T11:55:33;9.60;99.90
4964;DHT22;2497;47.410;9.740;2022-11-20T11:58:11;9.60;99.90
4964;DHT22;2497;47.410;9.740;2022-11-20T12:00:45;9.70;99.90
4964;DHT22;2497;47.410;9.740;2022-11-20T12:03:20;9.50;99.90
4964;DHT22;2497;47.410;9.740;2022-11-20T12:05:53;9.30;99.90
4964;DHT22;2497;47.410;9.740;2022-11-20T12:08:25;9.40;99.90
4964;DHT22;2497;47.410;9.740;2022-11-20T12:10:58;9.50;99.90
4964;DHT22;2497;47.410;9.740;2022-11-20T12:13:37;9.70;99.90
4964;DHT22;2497;47.410;9.740;2022-11-20T12:16:11;9.70;99.90
4964;DHT22;2497;47.410;9.740;2022-11-20T12:18:42;9.50;99.90
4964;DHT22;2497;47.410;9.740;2022-11-20T12:21:20;9.40;99.90
4964;DHT22;2497;47.410;9.740;2022-11-20T12:24:09;9.50;99.90
4964;DHT22;2497;47.410;9.740;2022-11-20T12:26:49;9.50;99.90
4964;DHT22;2497;47.410;9.740;2022-11-20T12:29:30;9.70;99.90
4964;DHT22;2497;47.410;9.740;2022-11-20T12:35:07;10.00;99.90
4964;DHT22;2497;47.410;9.740;2022-11-20T12:37:47;10.00;99.90
4964;DHT22;2497;47.410;9.740;2022-11-20T12:40:28;10.00;99.90
4964;DHT22;2497;47.410;9.740;2022-11-20T12:43:11;9.90;99.90
4964;DHT22;2497;47.410;9.740;2022-11-20T12:46:12;9.80;99.90
4964;DHT22;2497;47.410;9.740;2022-11-20T12:52:07;10.00;99.90
4964;DHT22;2497;47.410;9.740;2022-11-20T12:55:03;10.20;99.90
4964;DHT22;2497;47.410;9.740;2022-11-20T12:57:44;10.60;99.90
4964;DHT22;2497;47.410;9.740;2022-11-20T13:00:17;10.80;99.90
4964;DHT22;2497;47.410;9.740;2022-11-20T13:03:16;10.90;99.90
4964;DHT22;2497;47.410;9.740;2022-11-20T13:05:58;11.00;99.90
4964;DHT22;2497;47.410;9.740;2022-11-20T13:08:33;10.80;99.90
4964;DHT22;2497;47.410;9.740;2022-11-20T13:11:07;10.80;99.90
4964;DHT22;2497;47.410;9.740;2022-11-20T13:13:43;11.10;99.90
4964;DHT22;2497;47.410;9.740;2022-11-20T13:16:17;11.10;99.90
4964;DHT22;2497;47.410;9.740;2022-11-20T13:18:48;10.80;99.90
4964;DHT22;2497;47.410;9.740;2022-11-20T13:21:18;10.60;99.90
4964;DHT22;2497;47.410;9.740;2022-11-20T13:23:48;10.50;99.90
4964;DHT22;2497;47.410;9.740;2022-11-20T13:26:19;10.50;99.90
4964;DHT22;2497;47.410;9.740;2022-11-20T13:29:02;10.50;99.90
4964;DHT22;2497;47.410;9.740;2022-11-20T13:31:34;10.40;99.90
4964;DHT22;2497;47.410;9.740;2022-11-20T13:34:06;10.50;99.90
4964;DHT22;2497;47.410;9.740;2022-11-20T13:36:35;10.60;99.90
4964;DHT22;2497;47.410;9.740;2022-11-20T13:39:05;11.10;99.90
4964;DHT22;2497;47.410;9.740;2022-11-20T13:41:35;11.70;99.90
4964;DHT22;2497;47.410;9.740;2022-11-20T13:44:13;12.10;99.90
4964;DHT22;2497;47.410;9.740;2022-11-20T13:46:42;11.60;99.90
4964;DHT22;2497;47.410;9.740;2022-11-20T13:49:17;11.30;99.90
4964;DHT22;2497;47.410;9.740;2022-11-20T13:51:48;11.10;99.90
4964;DHT22;2497;47.410;9.740;2022-11-20T13:54:47;11.60;99.90
4964;DHT22;2497;47.410;9.740;2022-11-20T13:57:40;12.20;99.90
4964;DHT22;2497;47.410;9.740;2022-11-20T14:00:13;12.30;99.90
4964;DHT22;2497;47.410;9.740;2022-11-20T14:02:43;12.70;99.90
4964;DHT22;2497;47.410;9.740;2022-11-20T14:05:20;13.20;99.90
4964;DHT22;2497;47.410;9.740;2022-11-20T14:07:50;13.40;99.90
4964;DHT22;2497;47.410;9.740;2022-11-20T14:10:23;13.40;99.90
4964;DHT22;2497;47.410;9.740;2022-11-20T14:12:52;13.30;99.90
4964;DHT22;2497;47.410;9.740;2022-11-20T14:15:26;13.00;99.90
4964;DHT22;2497;47.410;9.740;2022-11-20T14:17:55;12.60;99.90
4964;DHT22;2497;47.410;9.740;2022-11-20T14:20:26;12.20;99.90
4964;DHT22;2497;47.410;9.740;2022-11-20T14:22:57;12.30;99.90
4964;DHT22;2497;47.410;9.740;2022-11-20T14:25:29;12.30;99.90
4964;DHT22;2497;47.410;9.740;2022-11-20T14:28:01;12.30;99.90
4964;DHT22;2497;47.410;9.740;2022-11-20T14:30:38;12.40;99.90
4964;DHT22;2497;47.410;9.740;2022-11-20T14:33:11;12.50;99.90
4964;DHT22;2497;47.410;9.740;2022-11-20T14:35:44;12.20;99.90
4964;DHT22;2497;47.410;9.740;2022-11-20T14:38:15;11.90;99.90
4964;DHT22;2497;47.410;9.740;2022-11-20T14:40:47;11.60;99.90
4964;DHT22;2497;47.410;9.740;2022-11-20T14:43:24;11.30;99.90
4964;DHT22;2497;47.410;9.740;2022-11-20T14:46:03;11.00;99.90
4964;DHT22;2497;47.410;9.740;2022-11-20T14:48:35;11.00;99.90
4964;DHT22;2497;47.410;9.740;2022-11-20T14:51:09;10.70;99.90
4964;DHT22;2497;47.410;9.740;2022-11-20T14:53:40;10.50;99.90
4964;DHT22;2497;47.410;9.740;2022-11-20T14:56:21;10.40;99.90
4964;DHT22;2497;47.410;9.740;2022-11-20T14:58:57;10.10;99.90
4964;DHT22;2497;47.410;9.740;2022-11-20T15:01:30;9.80;99.90
4964;DHT22;2497;47.410;9.740;2022-11-20T15:04:01;9.60;99.90
4964;DHT22;2497;47.410;9.740;2022-11-20T15:06:30;9.40;99.90
4964;DHT22;2497;47.410;9.740;2022-11-20T15:09:03;9.20;99.90
4964;DHT22;2497;47.410;9.740;2022-11-20T15:11:35;9.00;99.90
4964;DHT22;2497;47.410;9.740;2022-11-20T15:14:05;8.80;99.90
4964;DHT22;2497;47.410;9.740;2022-11-20T15:16:34;8.60;99.90
4964;DHT22;2497;47.410;9.740;2022-11-20T15:19:03;8.30;99.90
4964;DHT22;2497;47.410;9.740;2022-11-20T15:21:37;8.10;99.90
4964;DHT22;2497;47.410;9.740;2022-11-20T15:24:08;7.90;99.90
4964;DHT22;2497;47.410;9.740;2022-11-20T15:26:39;7.70;99.90
4964;DHT22;2497;47.410;9.740;2022-11-20T15:29:09;7.60;99.90
4964;DHT22;2497;47.410;9.740;2022-11-20T15:31:38;7.40;99.90
4964;DHT22;2497;47.410;9.740;2022-11-20T15:34:11;7.40;99.90
4964;DHT22;2497;47.410;9.740;2022-11-20T15:36:40;7.20;99.90
4964;DHT22;2497;47.410;9.740;2022-11-20T15:39:09;7.10;99.90
4964;DHT22;2497;47.410;9.740;2022-11-20T15:41:39;7.00;99.90
4964;DHT22;2497;47.410;9.740;2022-11-20T15:44:07;6.80;99.90
4964;DHT22;2497;47.410;9.740;2022-11-20T15:46:38;6.70;99.90
4964;DHT22;2497;47.410;9.740;2022-11-20T15:49:13;6.70;99.90
4964;DHT22;2497;47.410;9.740;2022-11-20T15:51:44;6.60;99.90
4964;DHT22;2497;47.410;9.740;2022-11-20T15:54:15;6.60;99.90
4964;DHT22;2497;47.410;9.740;2022-11-20T15:56:48;6.50;99.90
4964;DHT22;2497;47.410;9.740;2022-11-20T15:59:19;6.40;99.90
4964;DHT22;2497;47.410;9.740;2022-11-20T16:01:47;6.40;99.90
4964;DHT22;2497;47.410;9.740;2022-11-20T16:04:16;6.30;99.90
4964;DHT22;2497;47.410;9.740;2022-11-20T16:06:45;6.20;99.90
4964;DHT22;2497;47.410;9.740;2022-11-20T16:09:13;6.10;99.90
4964;DHT22;2497;47.410;9.740;2022-11-20T16:11:42;6.10;99.90
4964;DHT22;2497;47.410;9.740;2022-11-20T16:14:13;6.00;99.90
4964;DHT22;2497;47.410;9.740;2022-11-20T16:16:58;5.90;99.90
4964;DHT22;2497;47.410;9.740;2022-11-20T16:19:27;5.90;99.90
4964;DHT22;2497;47.410;9.740;2022-11-20T16:21:58;5.90;99.90
4964;DHT22;2497;47.410;9.740;2022-11-20T16:24:26;5.90;99.90
4964;DHT22;2497;47.410;9.740;2022-11-20T16:26:54;5.90;99.90
4964;DHT22;2497;47.410;9.740;2022-11-20T16:29:24;5.80;99.90
4964;DHT22;2497;47.410;9.740;2022-11-20T16:31:53;5.90;99.90
4964;DHT22;2497;47.410;9.740;2022-11-20T16:34:22;5.80;99.90
4964;DHT22;2497;47.410;9.740;2022-11-20T16:36:51;5.70;99.90
4964;DHT22;2497;47.410;9.740;2022-11-20T16:39:20;5.70;99.90
4964;DHT22;2497;47.410;9.740;2022-11-20T16:41:48;5.70;99.90
4964;DHT22;2497;47.410;9.740;2022-11-20T16:44:17;5.60;99.90
4964;DHT22;2497;47.410;9.740;2022-11-20T16:46:48;5.60;99.90